Terminal Aerodrome Forecast
Issued by NWS

Home | Current Version | Previous Version | Text Only | Print | Product List | Glossary On
Versions: 1 2 3 4 5 6 7 8 9 10 11 12 13 14 15 16 17 18 19 20 21 22 23 24 25 26 27 28 29 30 31 32
000
FTUS44 KTSA 262300
TAFRVS
TAF
KRVS 262320Z 2700/2724 09005KT P6SM BKN060
     FM270100 18006KT P6SM VCTS SCT050CB BKN150
     FM270800 18005KT P6SM BKN050 PROB30 2709/2713 3SM -TSRA
      BKN025CB
     FM271800 21008KT P6SM OVC050=

USA.gov is the U.S. government's official web portal to all federal, state and local government web resources and services.